sensor_id;sensor_type;location;lat;lon;timestamp;temperature;humidity
17370;DHT22;8802;52.402;4.920;2023-07-13T00:01:46;21.50;96.20
17370;DHT22;8802;52.402;4.920;2023-07-13T00:04:15;21.50;96.30
17370;DHT22;8802;52.402;4.920;2023-07-13T00:06:43;21.40;96.30
17370;DHT22;8802;52.402;4.920;2023-07-13T00:09:11;21.40;96.70
17370;DHT22;8802;52.402;4.920;2023-07-13T00:11:39;21.40;96.40
17370;DHT22;8802;52.402;4.920;2023-07-13T00:14:08;21.40;96.50
17370;DHT22;8802;52.402;4.920;2023-07-13T00:16:36;21.40;96.60
17370;DHT22;8802;52.402;4.920;2023-07-13T00:19:04;21.40;96.50
17370;DHT22;8802;52.402;4.920;2023-07-13T00:21:32;21.40;96.60
17370;DHT22;8802;52.402;4.920;2023-07-13T00:23:59;21.40;96.70
17370;DHT22;8802;52.402;4.920;2023-07-13T00:26:26;21.40;96.70
17370;DHT22;8802;52.402;4.920;2023-07-13T00:28:54;21.40;96.80
17370;DHT22;8802;52.402;4.920;2023-07-13T00:31:22;21.40;96.80
17370;DHT22;8802;52.402;4.920;2023-07-13T00:33:49;21.40;96.90
17370;DHT22;8802;52.402;4.920;2023-07-13T00:36:16;21.40;97.00
17370;DHT22;8802;52.402;4.920;2023-07-13T00:38:43;21.40;97.00
17370;DHT22;8802;52.402;4.920;2023-07-13T00:41:10;21.40;97.00
17370;DHT22;8802;52.402;4.920;2023-07-13T00:43:37;21.40;97.00
17370;DHT22;8802;52.402;4.920;2023-07-13T00:46:15;21.40;97.00
17370;DHT22;8802;52.402;4.920;2023-07-13T00:48:46;21.40;97.00
17370;DHT22;8802;52.402;4.920;2023-07-13T00:51:14;21.40;97.10
17370;DHT22;8802;52.402;4.920;2023-07-13T00:53:43;21.40;97.10
17370;DHT22;8802;52.402;4.920;2023-07-13T00:56:10;21.40;97.00
17370;DHT22;8802;52.402;4.920;2023-07-13T00:58:37;21.50;97.00
17370;DHT22;8802;52.402;4.920;2023-07-13T01:01:04;21.50;96.90
17370;DHT22;8802;52.402;4.920;2023-07-13T01:03:31;21.50;96.90
17370;DHT22;8802;52.402;4.920;2023-07-13T01:06:00;21.50;96.80
17370;DHT22;8802;52.402;4.920;2023-07-13T01:08:28;21.50;96.60
17370;DHT22;8802;52.402;4.920;2023-07-13T01:10:56;21.50;96.70
17370;DHT22;8802;52.402;4.920;2023-07-13T01:13:24;21.40;96.60
17370;DHT22;8802;52.402;4.920;2023-07-13T01:15:51;21.50;96.50
17370;DHT22;8802;52.402;4.920;2023-07-13T01:18:21;21.40;96.40
17370;DHT22;8802;52.402;4.920;2023-07-13T01:20:55;21.40;96.40
17370;DHT22;8802;52.402;4.920;2023-07-13T01:23:23;21.40;96.40
17370;DHT22;8802;52.402;4.920;2023-07-13T01:25:51;21.50;96.30
17370;DHT22;8802;52.402;4.920;2023-07-13T01:28:19;21.40;96.20
17370;DHT22;8802;52.402;4.920;2023-07-13T01:30:47;21.40;96.20
17370;DHT22;8802;52.402;4.920;2023-07-13T01:33:15;21.40;96.10
17370;DHT22;8802;52.402;4.920;2023-07-13T01:35:42;21.40;96.10
17370;DHT22;8802;52.402;4.920;2023-07-13T01:38:14;21.40;96.10
17370;DHT22;8802;52.402;4.920;2023-07-13T01:40:42;21.40;96.10
17370;DHT22;8802;52.402;4.920;2023-07-13T01:43:09;21.40;96.10
17370;DHT22;8802;52.402;4.920;2023-07-13T01:45:36;21.40;96.10
17370;DHT22;8802;52.402;4.920;2023-07-13T01:48:03;21.40;96.10
17370;DHT22;8802;52.402;4.920;2023-07-13T01:50:32;21.40;96.00
17370;DHT22;8802;52.402;4.920;2023-07-13T01:52:59;21.30;96.00
17370;DHT22;8802;52.402;4.920;2023-07-13T01:55:29;21.30;96.00
17370;DHT22;8802;52.402;4.920;2023-07-13T01:57:56;21.30;96.00
17370;DHT22;8802;52.402;4.920;2023-07-13T02:00:23;21.30;96.40
17370;DHT22;8802;52.402;4.920;2023-07-13T02:02:51;21.30;96.10
17370;DHT22;8802;52.402;4.920;2023-07-13T02:05:18;21.30;96.10
17370;DHT22;8802;52.402;4.920;2023-07-13T02:07:45;21.30;96.10
17370;DHT22;8802;52.402;4.920;2023-07-13T02:10:13;21.30;96.10
17370;DHT22;8802;52.402;4.920;2023-07-13T02:12:41;21.20;96.10
17370;DHT22;8802;52.402;4.920;2023-07-13T02:15:09;21.20;96.00
17370;DHT22;8802;52.402;4.920;2023-07-13T02:17:37;21.20;96.00
17370;DHT22;8802;52.402;4.920;2023-07-13T02:20:05;21.20;95.90
17370;DHT22;8802;52.402;4.920;2023-07-13T02:22:33;21.20;95.90
17370;DHT22;8802;52.402;4.920;2023-07-13T02:25:00;21.20;96.00
17370;DHT22;8802;52.402;4.920;2023-07-13T02:27:27;21.10;95.80
17370;DHT22;8802;52.402;4.920;2023-07-13T02:29:55;21.20;95.80
17370;DHT22;8802;52.402;4.920;2023-07-13T02:32:22;21.10;95.80
17370;DHT22;8802;52.402;4.920;2023-07-13T02:34:50;21.20;95.70
17370;DHT22;8802;52.402;4.920;2023-07-13T02:37:17;21.10;95.60
17370;DHT22;8802;52.402;4.920;2023-07-13T02:39:44;21.10;95.70
17370;DHT22;8802;52.402;4.920;2023-07-13T02:42:13;21.10;95.60
17370;DHT22;8802;52.402;4.920;2023-07-13T02:44:40;21.10;95.60
17370;DHT22;8802;52.402;4.920;2023-07-13T02:47:08;21.10;95.50
17370;DHT22;8802;52.402;4.920;2023-07-13T02:49:35;21.10;95.60
17370;DHT22;8802;52.402;4.920;2023-07-13T02:52:04;21.10;95.50
17370;DHT22;8802;52.402;4.920;2023-07-13T02:54:31;21.10;95.60
17370;DHT22;8802;52.402;4.920;2023-07-13T02:56:58;21.10;95.70
17370;DHT22;8802;52.402;4.920;2023-07-13T02:59:25;21.00;95.60
17370;DHT22;8802;52.402;4.920;2023-07-13T03:01:52;21.10;95.70
17370;DHT22;8802;52.402;4.920;2023-07-13T03:04:20;21.10;95.70
17370;DHT22;8802;52.402;4.920;2023-07-13T03:06:47;21.00;95.80
17370;DHT22;8802;52.402;4.920;2023-07-13T03:09:14;21.00;95.70
17370;DHT22;8802;52.402;4.920;2023-07-13T03:11:41;21.00;95.80
17370;DHT22;8802;52.402;4.920;2023-07-13T03:14:08;21.10;95.90
17370;DHT22;8802;52.402;4.920;2023-07-13T03:16:35;21.00;95.90
17370;DHT22;8802;52.402;4.920;2023-07-13T03:19:02;21.10;96.00
17370;DHT22;8802;52.402;4.920;2023-07-13T03:21:31;21.00;96.20
17370;DHT22;8802;52.402;4.920;2023-07-13T03:23:58;21.00;96.20
17370;DHT22;8802;52.402;4.920;2023-07-13T03:26:25;21.00;96.20
17370;DHT22;8802;52.402;4.920;2023-07-13T03:28:52;21.10;96.30
17370;DHT22;8802;52.402;4.920;2023-07-13T03:31:20;21.00;96.30
17370;DHT22;8802;52.402;4.920;2023-07-13T03:33:48;21.00;96.40
17370;DHT22;8802;52.402;4.920;2023-07-13T03:36:16;21.00;96.40
17370;DHT22;8802;52.402;4.920;2023-07-13T03:38:46;21.00;96.40
17370;DHT22;8802;52.402;4.920;2023-07-13T03:41:14;21.10;96.40
17370;DHT22;8802;52.402;4.920;2023-07-13T03:43:41;21.00;96.40
17370;DHT22;8802;52.402;4.920;2023-07-13T03:46:08;21.00;96.40
17370;DHT22;8802;52.402;4.920;2023-07-13T03:48:35;21.00;96.30
17370;DHT22;8802;52.402;4.920;2023-07-13T03:51:02;21.00;96.30
17370;DHT22;8802;52.402;4.920;2023-07-13T03:53:29;21.00;96.30
17370;DHT22;8802;52.402;4.920;2023-07-13T03:55:57;21.00;96.30
17370;DHT22;8802;52.402;4.920;2023-07-13T03:58:30;21.00;96.30
17370;DHT22;8802;52.402;4.920;2023-07-13T04:00:58;21.00;96.40
17370;DHT22;8802;52.402;4.920;2023-07-13T04:03:26;21.00;96.40
17370;DHT22;8802;52.402;4.920;2023-07-13T04:05:54;21.00;96.50
17370;DHT22;8802;52.402;4.920;2023-07-13T04:08:26;21.00;96.50
17370;DHT22;8802;52.402;4.920;2023-07-13T04:10:53;21.00;96.60
17370;DHT22;8802;52.402;4.920;2023-07-13T04:13:22;21.00;96.60
17370;DHT22;8802;52.402;4.920;2023-07-13T04:15:49;21.00;96.60
17370;DHT22;8802;52.402;4.920;2023-07-13T04:18:16;21.00;96.60
17370;DHT22;8802;52.402;4.920;2023-07-13T04:20:44;21.00;96.70
17370;DHT22;8802;52.402;4.920;2023-07-13T04:23:10;21.00;96.70
17370;DHT22;8802;52.402;4.920;2023-07-13T04:25:37;21.10;96.80
17370;DHT22;8802;52.402;4.920;2023-07-13T04:28:05;21.10;96.80
17370;DHT22;8802;52.402;4.920;2023-07-13T04:30:33;21.10;96.90
17370;DHT22;8802;52.402;4.920;2023-07-13T04:33:01;21.10;96.90
17370;DHT22;8802;52.402;4.920;2023-07-13T04:35:28;21.10;96.90
17370;DHT22;8802;52.402;4.920;2023-07-13T04:37:54;21.10;97.00
17370;DHT22;8802;52.402;4.920;2023-07-13T04:40:21;21.20;96.90
17370;DHT22;8802;52.402;4.920;2023-07-13T04:42:48;21.20;96.80
17370;DHT22;8802;52.402;4.920;2023-07-13T04:45:15;21.20;96.90
17370;DHT22;8802;52.402;4.920;2023-07-13T04:47:44;21.20;97.00
17370;DHT22;8802;52.402;4.920;2023-07-13T04:50:13;21.20;96.90
17370;DHT22;8802;52.402;4.920;2023-07-13T04:52:41;21.20;97.00
17370;DHT22;8802;52.402;4.920;2023-07-13T04:55:08;21.20;97.00
17370;DHT22;8802;52.402;4.920;2023-07-13T04:57:35;21.20;97.30
17370;DHT22;8802;52.402;4.920;2023-07-13T05:00:04;21.20;97.00
17370;DHT22;8802;52.402;4.920;2023-07-13T05:02:33;21.30;97.00
17370;DHT22;8802;52.402;4.920;2023-07-13T05:05:02;21.30;97.00
17370;DHT22;8802;52.402;4.920;2023-07-13T05:07:32;21.30;97.60
17370;DHT22;8802;52.402;4.920;2023-07-13T05:10:04;21.30;97.10
17370;DHT22;8802;52.402;4.920;2023-07-13T05:12:32;21.30;97.50
17370;DHT22;8802;52.402;4.920;2023-07-13T05:14:59;21.30;97.10
17370;DHT22;8802;52.402;4.920;2023-07-13T05:17:26;21.40;97.10
17370;DHT22;8802;52.402;4.920;2023-07-13T05:19:53;21.40;97.20
17370;DHT22;8802;52.402;4.920;2023-07-13T05:22:21;21.40;97.20
17370;DHT22;8802;52.402;4.920;2023-07-13T05:24:48;21.40;97.30
17370;DHT22;8802;52.402;4.920;2023-07-13T05:27:15;21.40;97.20
17370;DHT22;8802;52.402;4.920;2023-07-13T05:29:42;21.40;97.20
17370;DHT22;8802;52.402;4.920;2023-07-13T05:32:10;21.50;97.20
17370;DHT22;8802;52.402;4.920;2023-07-13T05:34:36;21.50;97.20
17370;DHT22;8802;52.402;4.920;2023-07-13T05:37:04;21.50;97.30
17370;DHT22;8802;52.402;4.920;2023-07-13T05:39:32;21.50;97.30
17370;DHT22;8802;52.402;4.920;2023-07-13T05:41:59;21.50;97.30
17370;DHT22;8802;52.402;4.920;2023-07-13T05:44:26;21.50;97.30
17370;DHT22;8802;52.402;4.920;2023-07-13T05:46:53;21.60;97.30
17370;DHT22;8802;52.402;4.920;2023-07-13T05:49:23;21.60;97.20
17370;DHT22;8802;52.402;4.920;2023-07-13T05:51:50;21.60;97.20
17370;DHT22;8802;52.402;4.920;2023-07-13T05:54:17;21.60;97.20
17370;DHT22;8802;52.402;4.920;2023-07-13T05:56:45;21.60;97.20
17370;DHT22;8802;52.402;4.920;2023-07-13T05:59:12;21.60;97.10
17370;DHT22;8802;52.402;4.920;2023-07-13T06:01:39;21.60;97.20
17370;DHT22;8802;52.402;4.920;2023-07-13T06:04:06;21.70;97.20
17370;DHT22;8802;52.402;4.920;2023-07-13T06:06:33;21.70;97.10
17370;DHT22;8802;52.402;4.920;2023-07-13T06:09:00;21.70;97.00
17370;DHT22;8802;52.402;4.920;2023-07-13T06:11:27;21.70;97.40
17370;DHT22;8802;52.402;4.920;2023-07-13T06:13:57;21.80;97.00
17370;DHT22;8802;52.402;4.920;2023-07-13T06:16:24;21.80;96.90
17370;DHT22;8802;52.402;4.920;2023-07-13T06:18:51;21.80;96.90
17370;DHT22;8802;52.402;4.920;2023-07-13T06:21:19;21.80;96.80
17370;DHT22;8802;52.402;4.920;2023-07-13T06:23:48;21.90;96.90
17370;DHT22;8802;52.402;4.920;2023-07-13T06:26:15;21.90;96.60
17370;DHT22;8802;52.402;4.920;2023-07-13T06:28:43;21.90;96.40
17370;DHT22;8802;52.402;4.920;2023-07-13T06:31:13;22.00;96.40
17370;DHT22;8802;52.402;4.920;2023-07-13T06:33:40;22.00;96.30
17370;DHT22;8802;52.402;4.920;2023-07-13T06:36:08;22.00;96.20
17370;DHT22;8802;52.402;4.920;2023-07-13T06:38:36;22.10;96.10
17370;DHT22;8802;52.402;4.920;2023-07-13T06:41:03;22.10;95.80
17370;DHT22;8802;52.402;4.920;2023-07-13T06:43:30;22.20;95.60
17370;DHT22;8802;52.402;4.920;2023-07-13T06:45:57;22.20;95.50
17370;DHT22;8802;52.402;4.920;2023-07-13T06:48:27;22.30;95.40
17370;DHT22;8802;52.402;4.920;2023-07-13T06:50:54;22.30;95.30
17370;DHT22;8802;52.402;4.920;2023-07-13T06:53:21;22.40;95.30
17370;DHT22;8802;52.402;4.920;2023-07-13T06:55:48;22.40;95.10
17370;DHT22;8802;52.402;4.920;2023-07-13T06:58:17;22.40;95.00
17370;DHT22;8802;52.402;4.920;2023-07-13T07:00:44;22.50;94.80
17370;DHT22;8802;52.402;4.920;2023-07-13T07:03:11;22.50;94.60
17370;DHT22;8802;52.402;4.920;2023-07-13T07:05:39;22.50;94.60
17370;DHT22;8802;52.402;4.920;2023-07-13T07:08:06;22.60;94.50
17370;DHT22;8802;52.402;4.920;2023-07-13T07:10:34;22.70;94.70
17370;DHT22;8802;52.402;4.920;2023-07-13T07:13:01;22.80;94.40
17370;DHT22;8802;52.402;4.920;2023-07-13T07:15:28;22.80;94.30
17370;DHT22;8802;52.402;4.920;2023-07-13T07:17:55;22.90;94.10
17370;DHT22;8802;52.402;4.920;2023-07-13T07:20:22;23.00;93.90
17370;DHT22;8802;52.402;4.920;2023-07-13T07:22:51;23.10;94.20
17370;DHT22;8802;52.402;4.920;2023-07-13T07:25:18;23.10;94.00
17370;DHT22;8802;52.402;4.920;2023-07-13T07:27:45;23.20;94.00
17370;DHT22;8802;52.402;4.920;2023-07-13T07:30:13;23.30;93.80
17370;DHT22;8802;52.402;4.920;2023-07-13T07:32:40;23.40;93.70
17370;DHT22;8802;52.402;4.920;2023-07-13T07:35:08;23.50;93.40
17370;DHT22;8802;52.402;4.920;2023-07-13T07:37:35;23.50;92.70
17370;DHT22;8802;52.402;4.920;2023-07-13T07:40:05;23.60;92.70
17370;DHT22;8802;52.402;4.920;2023-07-13T07:42:32;23.60;92.50
17370;DHT22;8802;52.402;4.920;2023-07-13T07:44:59;23.60;92.20
17370;DHT22;8802;52.402;4.920;2023-07-13T07:47:26;23.70;92.00
17370;DHT22;8802;52.402;4.920;2023-07-13T07:49:53;23.70;92.00
17370;DHT22;8802;52.402;4.920;2023-07-13T07:52:20;23.70;91.90
17370;DHT22;8802;52.402;4.920;2023-07-13T07:54:47;23.70;92.10
17370;DHT22;8802;52.402;4.920;2023-07-13T07:57:15;23.70;92.20
17370;DHT22;8802;52.402;4.920;2023-07-13T07:59:42;23.70;92.10
17370;DHT22;8802;52.402;4.920;2023-07-13T08:02:10;23.70;92.30
17370;DHT22;8802;52.402;4.920;2023-07-13T08:04:37;23.80;92.20
17370;DHT22;8802;52.402;4.920;2023-07-13T08:07:05;23.90;92.20
17370;DHT22;8802;52.402;4.920;2023-07-13T08:09:32;23.90;92.00
17370;DHT22;8802;52.402;4.920;2023-07-13T08:11:59;23.90;92.10
17370;DHT22;8802;52.402;4.920;2023-07-13T08:14:27;23.90;92.00
17370;DHT22;8802;52.402;4.920;2023-07-13T08:16:55;23.90;92.00
17370;DHT22;8802;52.402;4.920;2023-07-13T08:19:22;23.90;92.10
17370;DHT22;8802;52.402;4.920;2023-07-13T08:21:49;23.90;91.80
17370;DHT22;8802;52.402;4.920;2023-07-13T08:24:16;23.90;91.40
17370;DHT22;8802;52.402;4.920;2023-07-13T08:26:44;23.90;91.40
17370;DHT22;8802;52.402;4.920;2023-07-13T08:29:12;23.90;91.40
17370;DHT22;8802;52.402;4.920;2023-07-13T08:31:40;24.00;91.30
17370;DHT22;8802;52.402;4.920;2023-07-13T08:34:07;24.00;91.00
17370;DHT22;8802;52.402;4.920;2023-07-13T08:36:34;24.10;91.00
17370;DHT22;8802;52.402;4.920;2023-07-13T08:39:01;24.10;90.70
17370;DHT22;8802;52.402;4.920;2023-07-13T08:41:28;24.10;90.70
17370;DHT22;8802;52.402;4.920;2023-07-13T08:43:58;24.10;90.80
17370;DHT22;8802;52.402;4.920;2023-07-13T08:46:28;24.10;90.60
17370;DHT22;8802;52.402;4.920;2023-07-13T08:49:03;24.10;90.30
17370;DHT22;8802;52.402;4.920;2023-07-13T08:51:40;24.10;90.10
17370;DHT22;8802;52.402;4.920;2023-07-13T08:54:17;24.10;90.00
17370;DHT22;8802;52.402;4.920;2023-07-13T08:56:46;24.10;90.00
17370;DHT22;8802;52.402;4.920;2023-07-13T08:59:15;24.10;89.50
17370;DHT22;8802;52.402;4.920;2023-07-13T09:04:42;24.10;89.50
17370;DHT22;8802;52.402;4.920;2023-07-13T09:07:16;24.10;89.80
17370;DHT22;8802;52.402;4.920;2023-07-13T09:09:53;24.20;89.10
17370;DHT22;8802;52.402;4.920;2023-07-13T09:12:26;24.20;89.60
17370;DHT22;8802;52.402;4.920;2023-07-13T09:14:57;24.30;90.00
17370;DHT22;8802;52.402;4.920;2023-07-13T09:17:29;24.40;90.00
17370;DHT22;8802;52.402;4.920;2023-07-13T09:20:00;24.40;89.10
17370;DHT22;8802;52.402;4.920;2023-07-13T09:22:29;24.60;89.60
17370;DHT22;8802;52.402;4.920;2023-07-13T09:25:04;24.60;88.30
17370;DHT22;8802;52.402;4.920;2023-07-13T09:27:36;24.70;88.00
17370;DHT22;8802;52.402;4.920;2023-07-13T09:30:21;24.80;87.40
17370;DHT22;8802;52.402;4.920;2023-07-13T09:32:52;24.80;86.80
17370;DHT22;8802;52.402;4.920;2023-07-13T09:35:25;24.90;86.80
17370;DHT22;8802;52.402;4.920;2023-07-13T09:37:58;25.00;87.30
17370;DHT22;8802;52.402;4.920;2023-07-13T09:40:35;25.10;86.30
17370;DHT22;8802;52.402;4.920;2023-07-13T09:43:04;25.20;85.80
17370;DHT22;8802;52.402;4.920;2023-07-13T09:45:34;25.20;85.60
17370;DHT22;8802;52.402;4.920;2023-07-13T09:48:05;25.30;85.00
17370;DHT22;8802;52.402;4.920;2023-07-13T09:50:35;25.40;83.80
17370;DHT22;8802;52.402;4.920;2023-07-13T09:53:03;25.40;84.20
17370;DHT22;8802;52.402;4.920;2023-07-13T09:55:31;25.50;84.40
17370;DHT22;8802;52.402;4.920;2023-07-13T09:58:03;25.50;83.60
17370;DHT22;8802;52.402;4.920;2023-07-13T10:00:32;25.70;83.90
17370;DHT22;8802;52.402;4.920;2023-07-13T10:03:01;25.70;83.90
17370;DHT22;8802;52.402;4.920;2023-07-13T10:05:39;25.80;83.10
17370;DHT22;8802;52.402;4.920;2023-07-13T10:08:16;25.90;81.70
17370;DHT22;8802;52.402;4.920;2023-07-13T10:10:44;25.90;81.90
17370;DHT22;8802;52.402;4.920;2023-07-13T10:13:32;25.90;81.20
17370;DHT22;8802;52.402;4.920;2023-07-13T10:16:00;26.00;80.70
17370;DHT22;8802;52.402;4.920;2023-07-13T10:18:29;26.00;80.40
17370;DHT22;8802;52.402;4.920;2023-07-13T10:21:14;26.00;80.30
17370;DHT22;8802;52.402;4.920;2023-07-13T10:23:42;26.10;81.10
17370;DHT22;8802;52.402;4.920;2023-07-13T10:26:15;26.10;80.00
17370;DHT22;8802;52.402;4.920;2023-07-13T10:28:47;26.20;80.00
17370;DHT22;8802;52.402;4.920;2023-07-13T10:31:16;26.30;79.20
17370;DHT22;8802;52.402;4.920;2023-07-13T10:33:43;26.40;78.70
17370;DHT22;8802;52.402;4.920;2023-07-13T10:36:19;26.40;78.10
17370;DHT22;8802;52.402;4.920;2023-07-13T10:38:48;26.50;78.60
17370;DHT22;8802;52.402;4.920;2023-07-13T10:41:20;26.60;79.30
17370;DHT22;8802;52.402;4.920;2023-07-13T10:43:50;26.80;79.00
17370;DHT22;8802;52.402;4.920;2023-07-13T10:46:19;26.90;77.70
17370;DHT22;8802;52.402;4.920;2023-07-13T10:48:50;27.00;77.70
17370;DHT22;8802;52.402;4.920;2023-07-13T10:51:19;27.10;76.60
17370;DHT22;8802;52.402;4.920;2023-07-13T10:54:10;27.20;76.80
17370;DHT22;8802;52.402;4.920;2023-07-13T10:56:39;27.30;77.30
17370;DHT22;8802;52.402;4.920;2023-07-13T10:59:11;27.40;76.40
17370;DHT22;8802;52.402;4.920;2023-07-13T11:01:49;27.50;76.00
17370;DHT22;8802;52.402;4.920;2023-07-13T11:04:18;27.60;75.30
17370;DHT22;8802;52.402;4.920;2023-07-13T11:06:52;27.70;74.80
17370;DHT22;8802;52.402;4.920;2023-07-13T11:09:37;27.80;74.50
17370;DHT22;8802;52.402;4.920;2023-07-13T11:12:25;27.80;73.30
17370;DHT22;8802;52.402;4.920;2023-07-13T11:15:05;27.80;73.60
17370;DHT22;8802;52.402;4.920;2023-07-13T11:17:46;27.80;72.30
17370;DHT22;8802;52.402;4.920;2023-07-13T11:20:35;27.80;73.00
17370;DHT22;8802;52.402;4.920;2023-07-13T11:23:27;27.80;73.20
17370;DHT22;8802;52.402;4.920;2023-07-13T11:25:55;28.00;73.80
17370;DHT22;8802;52.402;4.920;2023-07-13T11:28:24;28.00;72.80
17370;DHT22;8802;52.402;4.920;2023-07-13T11:31:03;28.00;72.00
17370;DHT22;8802;52.402;4.920;2023-07-13T11:33:56;28.10;70.40
17370;DHT22;8802;52.402;4.920;2023-07-13T11:36:36;28.20;71.30
17370;DHT22;8802;52.402;4.920;2023-07-13T11:39:17;28.30;70.50
17370;DHT22;8802;52.402;4.920;2023-07-13T11:41:50;28.30;69.80
17370;DHT22;8802;52.402;4.920;2023-07-13T11:44:20;28.40;68.70
17370;DHT22;8802;52.402;4.920;2023-07-13T11:46:48;28.40;69.60
17370;DHT22;8802;52.402;4.920;2023-07-13T11:49:17;28.40;70.20
17370;DHT22;8802;52.402;4.920;2023-07-13T11:51:44;28.50;69.00
17370;DHT22;8802;52.402;4.920;2023-07-13T11:54:24;28.50;69.60
17370;DHT22;8802;52.402;4.920;2023-07-13T11:56:54;28.60;69.20
17370;DHT22;8802;52.402;4.920;2023-07-13T11:59:22;28.70;69.40
17370;DHT22;8802;52.402;4.920;2023-07-13T12:01:52;28.80;69.00
17370;DHT22;8802;52.402;4.920;2023-07-13T12:04:23;28.90;68.20
17370;DHT22;8802;52.402;4.920;2023-07-13T12:06:58;28.90;68.20
17370;DHT22;8802;52.402;4.920;2023-07-13T12:09:33;29.00;68.10
17370;DHT22;8802;52.402;4.920;2023-07-13T12:12:02;29.10;68.00
17370;DHT22;8802;52.402;4.920;2023-07-13T12:14:29;29.20;68.20
17370;DHT22;8802;52.402;4.920;2023-07-13T12:17:00;29.30;67.10
17370;DHT22;8802;52.402;4.920;2023-07-13T12:19:28;29.30;67.20
17370;DHT22;8802;52.402;4.920;2023-07-13T12:21:57;29.30;66.60
17370;DHT22;8802;52.402;4.920;2023-07-13T12:24:25;29.40;66.70
17370;DHT22;8802;52.402;4.920;2023-07-13T12:26:59;29.40;66.10
17370;DHT22;8802;52.402;4.920;2023-07-13T12:29:26;29.40;66.90
17370;DHT22;8802;52.402;4.920;2023-07-13T12:31:53;29.40;66.40
17370;DHT22;8802;52.402;4.920;2023-07-13T12:34:22;29.40;66.90
17370;DHT22;8802;52.402;4.920;2023-07-13T12:36:51;29.50;66.90
17370;DHT22;8802;52.402;4.920;2023-07-13T12:39:20;29.50;66.60
17370;DHT22;8802;52.402;4.920;2023-07-13T12:41:49;29.50;66.70
17370;DHT22;8802;52.402;4.920;2023-07-13T12:44:23;29.50;66.80
17370;DHT22;8802;52.402;4.920;2023-07-13T12:46:54;29.50;67.10
17370;DHT22;8802;52.402;4.920;2023-07-13T12:49:25;29.40;66.70
17370;DHT22;8802;52.402;4.920;2023-07-13T12:51:57;29.40;67.10
17370;DHT22;8802;52.402;4.920;2023-07-13T12:54:25;29.40;67.30
17370;DHT22;8802;52.402;4.920;2023-07-13T12:56:53;29.40;67.60
17370;DHT22;8802;52.402;4.920;2023-07-13T12:59:26;29.30;68.00
17370;DHT22;8802;52.402;4.920;2023-07-13T13:01:56;29.30;67.10
17370;DHT22;8802;52.402;4.920;2023-07-13T13:04:23;29.30;67.40
17370;DHT22;8802;52.402;4.920;2023-07-13T13:07:01;29.20;66.40
17370;DHT22;8802;52.402;4.920;2023-07-13T13:09:29;29.10;67.00
17370;DHT22;8802;52.402;4.920;2023-07-13T13:11:56;29.10;66.80
17370;DHT22;8802;52.402;4.920;2023-07-13T13:14:24;29.10;66.90
17370;DHT22;8802;52.402;4.920;2023-07-13T13:16:51;29.00;66.80
17370;DHT22;8802;52.402;4.920;2023-07-13T13:19:21;29.00;67.10
17370;DHT22;8802;52.402;4.920;2023-07-13T13:21:48;28.90;66.10
17370;DHT22;8802;52.402;4.920;2023-07-13T13:24:20;28.90;66.20
17370;DHT22;8802;52.402;4.920;2023-07-13T13:26:48;28.80;66.50
17370;DHT22;8802;52.402;4.920;2023-07-13T13:29:18;28.80;66.90
17370;DHT22;8802;52.402;4.920;2023-07-13T13:31:47;28.70;66.80
17370;DHT22;8802;52.402;4.920;2023-07-13T13:34:15;28.70;67.10
17370;DHT22;8802;52.402;4.920;2023-07-13T13:36:44;28.60;67.40
17370;DHT22;8802;52.402;4.920;2023-07-13T13:39:22;28.60;67.90
17370;DHT22;8802;52.402;4.920;2023-07-13T13:41:50;28.50;68.40
17370;DHT22;8802;52.402;4.920;2023-07-13T13:44:18;28.50;68.90
17370;DHT22;8802;52.402;4.920;2023-07-13T13:46:49;28.40;69.20
17370;DHT22;8802;52.402;4.920;2023-07-13T13:49:21;28.40;68.70
17370;DHT22;8802;52.402;4.920;2023-07-13T13:51:49;28.30;69.00
17370;DHT22;8802;52.402;4.920;2023-07-13T13:54:17;28.30;68.40
17370;DHT22;8802;52.402;4.920;2023-07-13T13:56:46;28.20;68.60
17370;DHT22;8802;52.402;4.920;2023-07-13T13:59:15;28.20;69.90
17370;DHT22;8802;52.402;4.920;2023-07-13T14:01:45;28.10;69.00
17370;DHT22;8802;52.402;4.920;2023-07-13T14:04:17;28.10;68.90
17370;DHT22;8802;52.402;4.920;2023-07-13T14:06:44;28.00;68.60
17370;DHT22;8802;52.402;4.920;2023-07-13T14:09:13;27.90;69.20
17370;DHT22;8802;52.402;4.920;2023-07-13T14:11:40;27.90;68.80
17370;DHT22;8802;52.402;4.920;2023-07-13T14:14:14;27.80;68.10
17370;DHT22;8802;52.402;4.920;2023-07-13T14:16:42;27.80;68.40
17370;DHT22;8802;52.402;4.920;2023-07-13T14:19:11;27.70;68.30
17370;DHT22;8802;52.402;4.920;2023-07-13T14:21:41;27.60;68.50
17370;DHT22;8802;52.402;4.920;2023-07-13T14:24:08;27.60;68.30
17370;DHT22;8802;52.402;4.920;2023-07-13T14:26:38;27.50;68.60
17370;DHT22;8802;52.402;4.920;2023-07-13T14:29:12;27.50;67.80
17370;DHT22;8802;52.402;4.920;2023-07-13T14:31:40;27.40;67.30
17370;DHT22;8802;52.402;4.920;2023-07-13T14:34:08;27.30;68.10
17370;DHT22;8802;52.402;4.920;2023-07-13T14:36:39;27.30;67.90
17370;DHT22;8802;52.402;4.920;2023-07-13T14:39:12;27.30;68.40
17370;DHT22;8802;52.402;4.920;2023-07-13T14:41:41;27.20;68.40
17370;DHT22;8802;52.402;4.920;2023-07-13T14:44:12;27.10;68.80
17370;DHT22;8802;52.402;4.920;2023-07-13T14:46:43;27.10;69.30
17370;DHT22;8802;52.402;4.920;2023-07-13T14:49:16;27.00;69.00
17370;DHT22;8802;52.402;4.920;2023-07-13T14:51:46;27.00;69.30
17370;DHT22;8802;52.402;4.920;2023-07-13T14:54:15;26.90;69.60
17370;DHT22;8802;52.402;4.920;2023-07-13T14:56:42;26.90;70.20
17370;DHT22;8802;52.402;4.920;2023-07-13T14:59:10;26.80;70.70
17370;DHT22;8802;52.402;4.920;2023-07-13T15:01:39;26.80;70.90
17370;DHT22;8802;52.402;4.920;2023-07-13T15:04:07;26.80;70.70
17370;DHT22;8802;52.402;4.920;2023-07-13T15:06:53;26.70;70.90
17370;DHT22;8802;52.402;4.920;2023-07-13T15:09:25;26.70;71.30
17370;DHT22;8802;52.402;4.920;2023-07-13T15:11:54;26.70;71.20
17370;DHT22;8802;52.402;4.920;2023-07-13T15:14:21;26.70;71.20
17370;DHT22;8802;52.402;4.920;2023-07-13T15:16:51;26.60;71.20
17370;DHT22;8802;52.402;4.920;2023-07-13T15:19:20;26.60;71.90
17370;DHT22;8802;52.402;4.920;2023-07-13T15:21:49;26.60;72.10
17370;DHT22;8802;52.402;4.920;2023-07-13T15:27:17;26.50;71.90
17370;DHT22;8802;52.402;4.920;2023-07-13T15:29:43;26.40;72.70
17370;DHT22;8802;52.402;4.920;2023-07-13T15:32:12;26.40;72.90
17370;DHT22;8802;52.402;4.920;2023-07-13T15:34:54;26.30;73.30
17370;DHT22;8802;52.402;4.920;2023-07-13T15:37:25;26.30;73.50
17370;DHT22;8802;52.402;4.920;2023-07-13T15:39:54;26.30;74.10
17370;DHT22;8802;52.402;4.920;2023-07-13T15:42:23;26.20;73.80
17370;DHT22;8802;52.402;4.920;2023-07-13T15:44:50;26.20;73.80
17370;DHT22;8802;52.402;4.920;2023-07-13T15:47:17;26.20;73.20
17370;DHT22;8802;52.402;4.920;2023-07-13T15:49:44;26.10;73.50
17370;DHT22;8802;52.402;4.920;2023-07-13T15:52:16;26.10;74.20
17370;DHT22;8802;52.402;4.920;2023-07-13T15:54:44;26.00;74.20
17370;DHT22;8802;52.402;4.920;2023-07-13T15:57:13;26.00;74.70
17370;DHT22;8802;52.402;4.920;2023-07-13T15:59:42;26.00;75.10
17370;DHT22;8802;52.402;4.920;2023-07-13T16:02:16;26.00;74.80
17370;DHT22;8802;52.402;4.920;2023-07-13T16:04:44;25.90;75.70